Lipton, Canada
Current Conditions -  °F | °C
As of 2:09 AM on Friday 28 Nov 2014 (Local Time) from CYQR Reporting Station
Light Snow Light Snow  
Wind Chill: -5°   Ceiling: 1500
Heat Index: 10°   Visibility: 4mi
Dew Point:   Wind: 14mph
Humidity: 85%   Direction: 90°E
Pressure: 29.83"   Gusts: 20mph
Location:  50.9°N, 103.85°W
Report Text: CYQR 280809Z 09012G17KT 4SM -SN DRSN BKN015 OVC050 M12/M14 A2983 RMK SC5SC3 SLP145
Loading
Personal Weather Stations






























Interactive Weather Map New forecast layout! Learn more

10-Day Weather Forecast

Advertisements
Track Severe Weather on mobile